Bookmark and Share
Track history (hours):
 

OOCL Kaohsiung

Last reported at 2014-Apr-20 11:09 UTC. Time now 2014-Apr-20 20:59 UTC.
Position N 39°31' W 073°53'.

Length 280 m; draft 11.8 m.

Type: Cargo ship. MMSI: 566389000.

NotesDate/timePositionNaut miles runAvg speedWind from/ knotsBaromVisibWave heightAir tempDewpointWater temp
2014-Apr-20 11:09N 39°31' W 073°53'915.7
2014-Apr-20 10:33N 39°41' W 073°52'1515.6
2014-Apr-20 09:34N 39°56' W 073°49'1413.7
2014-Apr-20 08:31N 40°10' W 073°50'10 9.5
2014-Apr-20 07:31N 40°20' W 073°49'8 8.7
2014-Apr-20 06:33N 40°28' W 073°51'1110.7
2014-Apr-20 05:34N 40°35' W 074°02'6 5.6
2014-Apr-20 04:33N 40°40' W 074°04'1 0.6
2014-Apr-20 03:33N 40°40' W 074°05'0 0.0
2014-Apr-20 02:33N 40°40' W 074°05'0 0.0
2014-Apr-20 01:33N 40°40' W 074°05'0 0.0
2014-Apr-20 00:33N 40°40' W 074°05'0 0.0
2014-Apr-19 23:33N 40°40' W 074°05'0 0.0
2014-Apr-19 22:33N 40°40' W 074°05'0 0.0
2014-Apr-19 21:33N 40°40' W 074°05'0 0.0
2014-Apr-19 20:33N 40°40' W 074°05'0 0.0
2014-Apr-19 19:33N 40°40' W 074°05'0 0.0
2014-Apr-19 18:33N 40°40' W 074°05'0 0.0
2014-Apr-19 17:33N 40°40' W 074°05'0 0.0
2014-Apr-19 16:33N 40°40' W 074°05'0 0.0
2014-Apr-19 15:33N 40°40' W 074°05'0 0.0
2014-Apr-19 14:33N 40°40' W 074°05'0 0.0
2014-Apr-19 13:33N 40°40' W 074°05'0 0.0
2014-Apr-19 12:34N 40°40' W 074°05'0 0.0
2014-Apr-19 11:33N 40°40' W 074°05'0 0.0
2014-Apr-19 10:33N 40°40' W 074°05'0 0.0
2014-Apr-19 09:33N 40°40' W 074°05'0 0.0
2014-Apr-19 08:33N 40°40' W 074°05'0 0.0
2014-Apr-19 07:33N 40°40' W 074°05'0 0.0
2014-Apr-19 06:33N 40°40' W 074°05'0 0.0
2014-Apr-19 05:33N 40°40' W 074°05'0 0.0
2014-Apr-19 04:33N 40°40' W 074°05'0 0.0
2014-Apr-19 03:33N 40°40' W 074°05'0 0.0
2014-Apr-19 02:33N 40°40' W 074°05'0 0.0
2014-Apr-19 01:33N 40°40' W 074°05'0 0.0
2014-Apr-19 00:33N 40°40' W 074°05'0 0.0
2014-Apr-18 23:33N 40°40' W 074°05'4 3.7
2014-Apr-18 22:33N 40°37' W 074°03'1010.4
2014-Apr-18 21:33N 40°29' W 073°54'9 8.1
2014-Apr-18 20:27N 40°27' W 073°42'9 9.2
2014-Apr-18 19:31N 40°28' W 073°31'1010.6
2014-Apr-18 18:33N 40°29' W 073°18'1712.8
2014-Apr-18 17:13N 40°31' W 072°55'913.0
2014-Apr-18 16:33N 40°31' W 072°44'8 7.7
2014-Apr-18 15:33N 40°31' W 072°34'8 7.6
2014-Apr-18 14:34N 40°30' W 072°24'1616.4
2014-Apr-18 13:34N 40°31' W 072°03'1716.5
2014-Apr-18 12:34N 40°32' W 071°41'1716.6
2014-Apr-18 11:33N 40°33' W 071°19'1716.8
2014-Apr-18 10:34N 40°33' W 070°57'1716.8
2014-Apr-18 09:34N 40°33' W 070°35'1716.9
2014-Apr-18 08:34N 40°33' W 070°13'1716.9
2014-Apr-18 07:34N 40°33' W 069°50'1816.3
2014-Apr-18 06:28N 40°34' W 069°27'  
2014-Apr-12 07:33N 49°42' W 007°06'2920.7
2014-Apr-12 06:11N 49°42' W 006°22'19720.4
2014-Apr-11 20:33N 50°24' W 001°23'1818.4
2014-Apr-11 19:33N 50°35' W 000°59'9 8.9
2014-Apr-11 18:33N 50°43' W 001°01'1111.3
2014-Apr-11 17:34N 50°48' W 001°18'8 7.7
2014-Apr-11 16:33N 50°54' W 001°25'1 1.2
2014-Apr-11 15:31N 50°54' W 001°27'0 0.0
2014-Apr-11 14:31N 50°54' W 001°27'0 0.0
2014-Apr-11 13:31N 50°54' W 001°27'0 0.0
2014-Apr-11 12:31N 50°54' W 001°27'0 0.0
2014-Apr-11 11:31N 50°54' W 001°27'0 0.0
2014-Apr-11 10:31N 50°54' W 001°27'0 0.0
2014-Apr-11 09:31N 50°54' W 001°27'0 0.0
2014-Apr-11 08:31N 50°54' W 001°27'0 0.0
2014-Apr-11 07:31N 50°54' W 001°27'0 0.0
2014-Apr-11 06:31N 50°54' W 001°27'0 0.0
2014-Apr-11 05:31N 50°54' W 001°27'0 0.0
2014-Apr-11 04:31N 50°54' W 001°27'0 0.0
2014-Apr-11 03:31N 50°54' W 001°27'0 0.0
2014-Apr-11 02:31N 50°54' W 001°27'0 0.0
2014-Apr-11 01:31N 50°54' W 001°27'0 0.0
2014-Apr-11 00:31N 50°54' W 001°27'0 0.0
2014-Apr-10 23:31N 50°54' W 001°27'0 0.0
2014-Apr-10 22:31N 50°54' W 001°27'0 0.0
2014-Apr-10 21:31N 50°54' W 001°27'0 0.0
2014-Apr-10 20:31N 50°54' W 001°27'0 0.0
2014-Apr-10 19:31N 50°54' W 001°27'0 0.0
2014-Apr-10 18:31N 50°54' W 001°27'0 0.0
2014-Apr-10 17:31N 50°54' W 001°27'0 0.0
2014-Apr-10 16:31N 50°54' W 001°27'0 0.0
2014-Apr-10 15:31N 50°54' W 001°27'0 0.0
2014-Apr-10 14:31N 50°54' W 001°27'0 0.0
2014-Apr-10 13:31N 50°54' W 001°27'1 0.8
2014-Apr-10 12:34N 50°54' W 001°26'7 6.6
2014-Apr-10 11:33N 50°50' W 001°19'  

Dump ship's entire track history

sailing weather and tide predictions

OOCL Kaohsiung — 9V9830 — position and weather